sensor_id;sensor_type;location;lat;lon;timestamp;temperature;humidity
17489;DHT22;8861;52.644;4.734;2022-11-24T00:00:49;8.70;99.90
17489;DHT22;8861;52.644;4.734;2022-11-24T00:03:16;8.70;99.90
17489;DHT22;8861;52.644;4.734;2022-11-24T00:05:43;8.80;99.90
17489;DHT22;8861;52.644;4.734;2022-11-24T00:08:10;8.80;99.90
17489;DHT22;8861;52.644;4.734;2022-11-24T00:10:39;8.80;99.90
17489;DHT22;8861;52.644;4.734;2022-11-24T00:13:06;8.80;99.90
17489;DHT22;8861;52.644;4.734;2022-11-24T00:15:33;8.80;99.90
17489;DHT22;8861;52.644;4.734;2022-11-24T00:18:00;8.70;99.90
17489;DHT22;8861;52.644;4.734;2022-11-24T00:20:27;8.60;99.90
17489;DHT22;8861;52.644;4.734;2022-11-24T00:22:54;8.60;99.90
17489;DHT22;8861;52.644;4.734;2022-11-24T00:25:21;8.60;99.90
17489;DHT22;8861;52.644;4.734;2022-11-24T00:27:51;8.60;99.90
17489;DHT22;8861;52.644;4.734;2022-11-24T00:30:18;8.60;99.90
17489;DHT22;8861;52.644;4.734;2022-11-24T00:32:45;8.60;99.90
17489;DHT22;8861;52.644;4.734;2022-11-24T00:35:12;8.60;99.90
17489;DHT22;8861;52.644;4.734;2022-11-24T00:37:39;8.70;99.90
17489;DHT22;8861;52.644;4.734;2022-11-24T00:40:07;8.70;99.90
17489;DHT22;8861;52.644;4.734;2022-11-24T00:42:34;8.70;99.90
17489;DHT22;8861;52.644;4.734;2022-11-24T00:45:03;8.70;99.90
17489;DHT22;8861;52.644;4.734;2022-11-24T00:47:30;8.70;99.90
17489;DHT22;8861;52.644;4.734;2022-11-24T00:49:57;8.70;99.90
17489;DHT22;8861;52.644;4.734;2022-11-24T00:52:24;8.70;99.90
17489;DHT22;8861;52.644;4.734;2022-11-24T00:54:51;8.70;99.90
17489;DHT22;8861;52.644;4.734;2022-11-24T00:57:18;8.70;99.90
17489;DHT22;8861;52.644;4.734;2022-11-24T00:59:45;8.80;99.90
17489;DHT22;8861;52.644;4.734;2022-11-24T01:02:14;8.80;99.90
17489;DHT22;8861;52.644;4.734;2022-11-24T01:04:41;8.80;99.90
17489;DHT22;8861;52.644;4.734;2022-11-24T01:07:09;8.90;99.90
17489;DHT22;8861;52.644;4.734;2022-11-24T01:09:36;8.90;99.90
17489;DHT22;8861;52.644;4.734;2022-11-24T01:12:03;8.90;99.90
17489;DHT22;8861;52.644;4.734;2022-11-24T01:14:31;8.80;99.90
17489;DHT22;8861;52.644;4.734;2022-11-24T01:16:58;8.80;99.90
17489;DHT22;8861;52.644;4.734;2022-11-24T01:19:26;8.80;99.90
17489;DHT22;8861;52.644;4.734;2022-11-24T01:21:53;8.70;99.90
17489;DHT22;8861;52.644;4.734;2022-11-24T01:24:20;8.70;99.90
17489;DHT22;8861;52.644;4.734;2022-11-24T01:26:47;8.70;99.90
17489;DHT22;8861;52.644;4.734;2022-11-24T01:29:14;8.70;99.90
17489;DHT22;8861;52.644;4.734;2022-11-24T01:31:41;8.70;99.90
17489;DHT22;8861;52.644;4.734;2022-11-24T01:34:08;8.60;99.90
17489;DHT22;8861;52.644;4.734;2022-11-24T01:36:37;8.60;99.90
17489;DHT22;8861;52.644;4.734;2022-11-24T01:39:04;8.60;99.90
17489;DHT22;8861;52.644;4.734;2022-11-24T01:41:33;8.50;99.90
17489;DHT22;8861;52.644;4.734;2022-11-24T01:44:00;8.50;99.90
17489;DHT22;8861;52.644;4.734;2022-11-24T01:46:29;8.50;99.90
17489;DHT22;8861;52.644;4.734;2022-11-24T01:49:03;8.50;99.90
17489;DHT22;8861;52.644;4.734;2022-11-24T01:51:39;8.50;99.90
17489;DHT22;8861;52.644;4.734;2022-11-24T01:54:09;8.50;99.90
17489;DHT22;8861;52.644;4.734;2022-11-24T01:56:39;8.50;99.90
17489;DHT22;8861;52.644;4.734;2022-11-24T01:59:10;8.50;99.90
17489;DHT22;8861;52.644;4.734;2022-11-24T02:01:38;8.50;99.90
17489;DHT22;8861;52.644;4.734;2022-11-24T02:04:07;8.60;99.90
17489;DHT22;8861;52.644;4.734;2022-11-24T02:06:39;8.50;99.90
17489;DHT22;8861;52.644;4.734;2022-11-24T02:09:12;8.60;99.90
17489;DHT22;8861;52.644;4.734;2022-11-24T02:11:42;8.60;99.90
17489;DHT22;8861;52.644;4.734;2022-11-24T02:14:13;8.70;99.90
17489;DHT22;8861;52.644;4.734;2022-11-24T02:16:43;8.70;99.90
17489;DHT22;8861;52.644;4.734;2022-11-24T02:19:20;8.60;99.90
17489;DHT22;8861;52.644;4.734;2022-11-24T02:21:51;8.60;99.90
17489;DHT22;8861;52.644;4.734;2022-11-24T02:24:23;8.50;99.90
17489;DHT22;8861;52.644;4.734;2022-11-24T02:26:54;8.50;99.90
17489;DHT22;8861;52.644;4.734;2022-11-24T02:29:21;8.50;99.90
17489;DHT22;8861;52.644;4.734;2022-11-24T02:31:51;8.60;99.90
17489;DHT22;8861;52.644;4.734;2022-11-24T02:34:20;8.70;99.90
17489;DHT22;8861;52.644;4.734;2022-11-24T02:36:47;8.70;99.90
17489;DHT22;8861;52.644;4.734;2022-11-24T02:39:15;8.80;99.90
17489;DHT22;8861;52.644;4.734;2022-11-24T02:41:45;8.90;99.90
17489;DHT22;8861;52.644;4.734;2022-11-24T02:44:18;9.00;99.90
17489;DHT22;8861;52.644;4.734;2022-11-24T02:46:45;9.10;99.90
17489;DHT22;8861;52.644;4.734;2022-11-24T02:49:12;9.20;99.90
17489;DHT22;8861;52.644;4.734;2022-11-24T02:51:40;9.30;99.90
17489;DHT22;8861;52.644;4.734;2022-11-24T02:54:07;9.40;99.90
17489;DHT22;8861;52.644;4.734;2022-11-24T02:56:34;9.40;99.90
17489;DHT22;8861;52.644;4.734;2022-11-24T02:59:01;9.50;99.90
17489;DHT22;8861;52.644;4.734;2022-11-24T03:01:30;9.50;99.90
17489;DHT22;8861;52.644;4.734;2022-11-24T03:03:57;9.50;99.90
17489;DHT22;8861;52.644;4.734;2022-11-24T03:06:24;9.50;99.90
17489;DHT22;8861;52.644;4.734;2022-11-24T03:08:51;9.50;99.90
17489;DHT22;8861;52.644;4.734;2022-11-24T03:11:18;9.60;99.90
17489;DHT22;8861;52.644;4.734;2022-11-24T03:13:45;9.50;99.90
17489;DHT22;8861;52.644;4.734;2022-11-24T03:16:12;9.50;99.90
17489;DHT22;8861;52.644;4.734;2022-11-24T03:18:40;9.50;99.90
17489;DHT22;8861;52.644;4.734;2022-11-24T03:21:07;9.40;99.90
17489;DHT22;8861;52.644;4.734;2022-11-24T03:23:34;9.40;99.90
17489;DHT22;8861;52.644;4.734;2022-11-24T03:26:07;9.40;99.90
17489;DHT22;8861;52.644;4.734;2022-11-24T03:28:35;9.40;99.90
17489;DHT22;8861;52.644;4.734;2022-11-24T03:31:02;9.40;99.90
17489;DHT22;8861;52.644;4.734;2022-11-24T03:33:29;9.30;99.90
17489;DHT22;8861;52.644;4.734;2022-11-24T03:35:57;9.30;99.90
17489;DHT22;8861;52.644;4.734;2022-11-24T03:38:24;9.40;99.90
17489;DHT22;8861;52.644;4.734;2022-11-24T03:40:52;9.30;99.90
17489;DHT22;8861;52.644;4.734;2022-11-24T03:43:18;9.40;99.90
17489;DHT22;8861;52.644;4.734;2022-11-24T03:45:46;9.40;99.90
17489;DHT22;8861;52.644;4.734;2022-11-24T03:48:13;9.40;99.90
17489;DHT22;8861;52.644;4.734;2022-11-24T03:50:41;9.40;99.90
17489;DHT22;8861;52.644;4.734;2022-11-24T03:53:09;9.50;99.90
17489;DHT22;8861;52.644;4.734;2022-11-24T03:55:36;9.50;99.90
17489;DHT22;8861;52.644;4.734;2022-11-24T03:58:03;9.60;99.90
17489;DHT22;8861;52.644;4.734;2022-11-24T04:00:30;9.60;99.90
17489;DHT22;8861;52.644;4.734;2022-11-24T04:02:57;9.60;99.90
17489;DHT22;8861;52.644;4.734;2022-11-24T04:05:24;9.60;99.90
17489;DHT22;8861;52.644;4.734;2022-11-24T04:07:54;9.70;99.90
17489;DHT22;8861;52.644;4.734;2022-11-24T04:10:23;9.70;99.90
17489;DHT22;8861;52.644;4.734;2022-11-24T04:12:50;9.60;99.90
17489;DHT22;8861;52.644;4.734;2022-11-24T04:15:18;9.50;99.90
17489;DHT22;8861;52.644;4.734;2022-11-24T04:17:46;9.50;99.90
17489;DHT22;8861;52.644;4.734;2022-11-24T04:20:14;9.50;99.90
17489;DHT22;8861;52.644;4.734;2022-11-24T04:22:42;9.50;99.90
17489;DHT22;8861;52.644;4.734;2022-11-24T04:25:09;9.40;99.90
17489;DHT22;8861;52.644;4.734;2022-11-24T04:27:38;9.50;99.90
17489;DHT22;8861;52.644;4.734;2022-11-24T04:30:06;9.40;99.90
17489;DHT22;8861;52.644;4.734;2022-11-24T04:32:33;9.40;99.90
17489;DHT22;8861;52.644;4.734;2022-11-24T04:35:00;9.40;99.90
17489;DHT22;8861;52.644;4.734;2022-11-24T04:37:27;9.30;99.90
17489;DHT22;8861;52.644;4.734;2022-11-24T04:39:54;9.20;99.90
17489;DHT22;8861;52.644;4.734;2022-11-24T04:42:20;9.20;99.90
17489;DHT22;8861;52.644;4.734;2022-11-24T04:44:49;9.20;99.90
17489;DHT22;8861;52.644;4.734;2022-11-24T04:47:19;9.20;99.90
17489;DHT22;8861;52.644;4.734;2022-11-24T04:49:46;9.20;99.90
17489;DHT22;8861;52.644;4.734;2022-11-24T04:52:15;9.20;99.90
17489;DHT22;8861;52.644;4.734;2022-11-24T04:54:42;9.20;99.90
17489;DHT22;8861;52.644;4.734;2022-11-24T04:57:14;9.20;99.90
17489;DHT22;8861;52.644;4.734;2022-11-24T04:59:41;9.20;99.90
17489;DHT22;8861;52.644;4.734;2022-11-24T05:02:10;9.20;99.90
17489;DHT22;8861;52.644;4.734;2022-11-24T05:04:37;9.20;99.90
17489;DHT22;8861;52.644;4.734;2022-11-24T05:07:04;9.30;99.90
17489;DHT22;8861;52.644;4.734;2022-11-24T05:09:31;9.30;99.90
17489;DHT22;8861;52.644;4.734;2022-11-24T05:11:58;9.30;99.90
17489;DHT22;8861;52.644;4.734;2022-11-24T05:14:26;9.30;99.90
17489;DHT22;8861;52.644;4.734;2022-11-24T05:16:54;9.30;99.90
17489;DHT22;8861;52.644;4.734;2022-11-24T05:19:22;9.30;99.90
17489;DHT22;8861;52.644;4.734;2022-11-24T05:21:49;9.30;99.90
17489;DHT22;8861;52.644;4.734;2022-11-24T05:24:16;9.40;99.90
17489;DHT22;8861;52.644;4.734;2022-11-24T05:26:43;9.30;99.90
17489;DHT22;8861;52.644;4.734;2022-11-24T05:29:10;9.30;99.90
17489;DHT22;8861;52.644;4.734;2022-11-24T05:31:37;9.20;99.90
17489;DHT22;8861;52.644;4.734;2022-11-24T05:34:04;9.20;99.90
17489;DHT22;8861;52.644;4.734;2022-11-24T05:36:32;9.10;99.90
17489;DHT22;8861;52.644;4.734;2022-11-24T05:39:19;9.00;99.90
17489;DHT22;8861;52.644;4.734;2022-11-24T05:41:46;9.00;99.90
17489;DHT22;8861;52.644;4.734;2022-11-24T05:44:13;9.00;99.90
17489;DHT22;8861;52.644;4.734;2022-11-24T05:46:40;8.90;99.90
17489;DHT22;8861;52.644;4.734;2022-11-24T05:49:07;8.90;99.90
17489;DHT22;8861;52.644;4.734;2022-11-24T05:51:35;8.90;99.90
17489;DHT22;8861;52.644;4.734;2022-11-24T05:54:02;8.90;99.90
17489;DHT22;8861;52.644;4.734;2022-11-24T05:56:29;8.90;99.90
17489;DHT22;8861;52.644;4.734;2022-11-24T05:58:56;8.90;99.90
17489;DHT22;8861;52.644;4.734;2022-11-24T06:01:23;8.90;99.90
17489;DHT22;8861;52.644;4.734;2022-11-24T06:03:49;9.00;99.90
17489;DHT22;8861;52.644;4.734;2022-11-24T06:06:17;8.90;99.90
17489;DHT22;8861;52.644;4.734;2022-11-24T06:08:45;8.80;99.90
17489;DHT22;8861;52.644;4.734;2022-11-24T06:11:12;8.80;99.90
17489;DHT22;8861;52.644;4.734;2022-11-24T06:13:45;8.70;99.90
17489;DHT22;8861;52.644;4.734;2022-11-24T06:16:13;8.70;99.90
17489;DHT22;8861;52.644;4.734;2022-11-24T06:18:40;8.60;99.90
17489;DHT22;8861;52.644;4.734;2022-11-24T06:21:07;8.60;99.90
17489;DHT22;8861;52.644;4.734;2022-11-24T06:23:34;8.60;99.90
17489;DHT22;8861;52.644;4.734;2022-11-24T06:26:02;8.50;99.90
17489;DHT22;8861;52.644;4.734;2022-11-24T06:28:29;8.50;99.90
17489;DHT22;8861;52.644;4.734;2022-11-24T06:31:00;8.40;99.90
17489;DHT22;8861;52.644;4.734;2022-11-24T06:33:30;8.30;99.90
17489;DHT22;8861;52.644;4.734;2022-11-24T06:36:01;8.30;99.90
17489;DHT22;8861;52.644;4.734;2022-11-24T06:38:29;8.20;99.90
17489;DHT22;8861;52.644;4.734;2022-11-24T06:41:00;8.20;99.90
17489;DHT22;8861;52.644;4.734;2022-11-24T06:43:29;8.10;99.90
17489;DHT22;8861;52.644;4.734;2022-11-24T06:45:56;8.10;99.90
17489;DHT22;8861;52.644;4.734;2022-11-24T06:48:24;8.10;99.90
17489;DHT22;8861;52.644;4.734;2022-11-24T06:50:51;8.10;99.90
17489;DHT22;8861;52.644;4.734;2022-11-24T06:53:18;8.20;99.90
17489;DHT22;8861;52.644;4.734;2022-11-24T06:55:46;8.30;99.90
17489;DHT22;8861;52.644;4.734;2022-11-24T06:58:13;8.30;99.90
17489;DHT22;8861;52.644;4.734;2022-11-24T07:00:41;8.30;99.90
17489;DHT22;8861;52.644;4.734;2022-11-24T07:03:13;8.40;99.90
17489;DHT22;8861;52.644;4.734;2022-11-24T07:05:41;8.40;99.90
17489;DHT22;8861;52.644;4.734;2022-11-24T07:08:08;8.50;99.90
17489;DHT22;8861;52.644;4.734;2022-11-24T07:10:35;8.50;99.90
17489;DHT22;8861;52.644;4.734;2022-11-24T07:13:02;8.60;99.90
17489;DHT22;8861;52.644;4.734;2022-11-24T07:15:29;8.80;99.90
17489;DHT22;8861;52.644;4.734;2022-11-24T07:17:57;8.80;99.90
17489;DHT22;8861;52.644;4.734;2022-11-24T07:20:24;8.90;99.90
17489;DHT22;8861;52.644;4.734;2022-11-24T07:22:54;8.90;99.90
17489;DHT22;8861;52.644;4.734;2022-11-24T07:25:21;8.90;99.90
17489;DHT22;8861;52.644;4.734;2022-11-24T07:27:48;8.90;99.90
17489;DHT22;8861;52.644;4.734;2022-11-24T07:30:16;9.00;99.90
17489;DHT22;8861;52.644;4.734;2022-11-24T07:32:46;9.00;99.90
17489;DHT22;8861;52.644;4.734;2022-11-24T07:35:14;9.00;99.90
17489;DHT22;8861;52.644;4.734;2022-11-24T07:37:41;9.10;99.90
17489;DHT22;8861;52.644;4.734;2022-11-24T07:40:09;9.00;99.90
17489;DHT22;8861;52.644;4.734;2022-11-24T07:42:36;9.10;99.90
17489;DHT22;8861;52.644;4.734;2022-11-24T07:45:03;9.10;99.90
17489;DHT22;8861;52.644;4.734;2022-11-24T07:47:30;9.10;99.90
17489;DHT22;8861;52.644;4.734;2022-11-24T07:49:57;9.00;99.90
17489;DHT22;8861;52.644;4.734;2022-11-24T07:52:25;9.00;99.90
17489;DHT22;8861;52.644;4.734;2022-11-24T07:54:52;8.90;99.90
17489;DHT22;8861;52.644;4.734;2022-11-24T07:57:19;8.90;99.90
17489;DHT22;8861;52.644;4.734;2022-11-24T07:59:45;8.80;99.90
17489;DHT22;8861;52.644;4.734;2022-11-24T08:02:12;8.70;99.90
17489;DHT22;8861;52.644;4.734;2022-11-24T08:04:39;8.70;99.90
17489;DHT22;8861;52.644;4.734;2022-11-24T08:07:06;8.70;99.90
17489;DHT22;8861;52.644;4.734;2022-11-24T08:09:34;8.70;99.90
17489;DHT22;8861;52.644;4.734;2022-11-24T08:12:01;8.60;99.90
17489;DHT22;8861;52.644;4.734;2022-11-24T08:14:28;8.60;99.90
17489;DHT22;8861;52.644;4.734;2022-11-24T08:16:56;8.60;99.90
17489;DHT22;8861;52.644;4.734;2022-11-24T08:19:23;8.60;99.90
17489;DHT22;8861;52.644;4.734;2022-11-24T08:21:50;8.60;99.90
17489;DHT22;8861;52.644;4.734;2022-11-24T08:24:17;8.60;99.90
17489;DHT22;8861;52.644;4.734;2022-11-24T08:26:45;8.60;99.90
17489;DHT22;8861;52.644;4.734;2022-11-24T08:29:12;8.60;99.90
17489;DHT22;8861;52.644;4.734;2022-11-24T08:31:39;8.60;99.90
17489;DHT22;8861;52.644;4.734;2022-11-24T08:34:06;8.70;99.90
17489;DHT22;8861;52.644;4.734;2022-11-24T08:36:33;8.70;99.90
17489;DHT22;8861;52.644;4.734;2022-11-24T08:39:00;8.70;99.90
17489;DHT22;8861;52.644;4.734;2022-11-24T08:41:28;8.70;99.90
17489;DHT22;8861;52.644;4.734;2022-11-24T08:43:57;8.70;99.90
17489;DHT22;8861;52.644;4.734;2022-11-24T08:46:24;8.60;99.90
17489;DHT22;8861;52.644;4.734;2022-11-24T08:48:52;8.60;99.90
17489;DHT22;8861;52.644;4.734;2022-11-24T08:51:22;8.60;99.90
17489;DHT22;8861;52.644;4.734;2022-11-24T08:53:53;8.60;99.90
17489;DHT22;8861;52.644;4.734;2022-11-24T08:56:20;8.70;99.90
17489;DHT22;8861;52.644;4.734;2022-11-24T08:58:47;8.80;99.90
17489;DHT22;8861;52.644;4.734;2022-11-24T09:01:16;9.00;99.90
17489;DHT22;8861;52.644;4.734;2022-11-24T09:03:45;9.00;99.90
17489;DHT22;8861;52.644;4.734;2022-11-24T09:06:12;9.00;99.90
17489;DHT22;8861;52.644;4.734;2022-11-24T09:08:39;9.10;99.90
17489;DHT22;8861;52.644;4.734;2022-11-24T09:11:08;9.10;99.90
17489;DHT22;8861;52.644;4.734;2022-11-24T09:13:35;9.10;99.90
17489;DHT22;8861;52.644;4.734;2022-11-24T09:16:03;9.20;99.90
17489;DHT22;8861;52.644;4.734;2022-11-24T09:18:32;9.20;99.90
17489;DHT22;8861;52.644;4.734;2022-11-24T09:21:05;9.20;99.90
17489;DHT22;8861;52.644;4.734;2022-11-24T09:23:33;9.20;99.90
17489;DHT22;8861;52.644;4.734;2022-11-24T09:26:04;9.20;99.90
17489;DHT22;8861;52.644;4.734;2022-11-24T09:28:31;9.20;99.90
17489;DHT22;8861;52.644;4.734;2022-11-24T09:31:01;9.30;99.90
17489;DHT22;8861;52.644;4.734;2022-11-24T09:33:29;9.40;99.90
17489;DHT22;8861;52.644;4.734;2022-11-24T09:35:57;9.40;99.90
17489;DHT22;8861;52.644;4.734;2022-11-24T09:38:24;9.50;99.90
17489;DHT22;8861;52.644;4.734;2022-11-24T09:40:52;9.40;99.90
17489;DHT22;8861;52.644;4.734;2022-11-24T09:43:24;9.40;99.90
17489;DHT22;8861;52.644;4.734;2022-11-24T09:45:59;9.50;99.90
17489;DHT22;8861;52.644;4.734;2022-11-24T09:48:32;9.50;99.90
17489;DHT22;8861;52.644;4.734;2022-11-24T09:51:03;9.60;99.90
17489;DHT22;8861;52.644;4.734;2022-11-24T09:53:35;9.50;99.90
17489;DHT22;8861;52.644;4.734;2022-11-24T09:56:13;9.50;99.90
17489;DHT22;8861;52.644;4.734;2022-11-24T09:58:44;9.60;99.90
17489;DHT22;8861;52.644;4.734;2022-11-24T10:01:16;9.70;99.90
17489;DHT22;8861;52.644;4.734;2022-11-24T10:03:45;9.70;99.90
17489;DHT22;8861;52.644;4.734;2022-11-24T10:06:22;9.80;99.90
17489;DHT22;8861;52.644;4.734;2022-11-24T10:09:12;10.00;99.90
17489;DHT22;8861;52.644;4.734;2022-11-24T10:11:45;10.20;99.90
17489;DHT22;8861;52.644;4.734;2022-11-24T10:14:35;10.50;99.90
17489;DHT22;8861;52.644;4.734;2022-11-24T10:17:12;10.70;99.90
17489;DHT22;8861;52.644;4.734;2022-11-24T10:19:48;10.70;99.90
17489;DHT22;8861;52.644;4.734;2022-11-24T10:22:26;10.70;99.90
17489;DHT22;8861;52.644;4.734;2022-11-24T10:25:06;10.60;99.90
17489;DHT22;8861;52.644;4.734;2022-11-24T10:27:38;10.50;99.90
17489;DHT22;8861;52.644;4.734;2022-11-24T10:30:13;10.50;99.90
17489;DHT22;8861;52.644;4.734;2022-11-24T10:32:45;10.50;99.90
17489;DHT22;8861;52.644;4.734;2022-11-24T10:35:15;10.50;99.90
17489;DHT22;8861;52.644;4.734;2022-11-24T10:37:50;10.50;99.90
17489;DHT22;8861;52.644;4.734;2022-11-24T10:40:25;10.60;99.90
17489;DHT22;8861;52.644;4.734;2022-11-24T10:42:58;10.60;99.90
17489;DHT22;8861;52.644;4.734;2022-11-24T10:45:27;10.70;99.90
17489;DHT22;8861;52.644;4.734;2022-11-24T10:47:54;10.70;99.90
17489;DHT22;8861;52.644;4.734;2022-11-24T10:50:24;10.70;99.90
17489;DHT22;8861;52.644;4.734;2022-11-24T10:53:00;10.80;99.90
17489;DHT22;8861;52.644;4.734;2022-11-24T10:55:56;10.80;99.90
17489;DHT22;8861;52.644;4.734;2022-11-24T10:58:26;10.90;99.90
17489;DHT22;8861;52.644;4.734;2022-11-24T11:00:55;11.10;99.90
17489;DHT22;8861;52.644;4.734;2022-11-24T11:03:24;11.20;99.90
17489;DHT22;8861;52.644;4.734;2022-11-24T11:05:53;11.40;99.90
17489;DHT22;8861;52.644;4.734;2022-11-24T11:08:27;11.50;99.90
17489;DHT22;8861;52.644;4.734;2022-11-24T11:11:13;11.40;99.90
17489;DHT22;8861;52.644;4.734;2022-11-24T11:13:52;11.40;99.90
17489;DHT22;8861;52.644;4.734;2022-11-24T11:16:33;11.30;99.90
17489;DHT22;8861;52.644;4.734;2022-11-24T11:19:02;11.20;99.90
17489;DHT22;8861;52.644;4.734;2022-11-24T11:21:34;11.10;99.90
17489;DHT22;8861;52.644;4.734;2022-11-24T11:24:11;11.10;99.90
17489;DHT22;8861;52.644;4.734;2022-11-24T11:26:39;11.20;99.90
17489;DHT22;8861;52.644;4.734;2022-11-24T11:29:16;11.50;99.90
17489;DHT22;8861;52.644;4.734;2022-11-24T11:31:56;11.70;99.90
17489;DHT22;8861;52.644;4.734;2022-11-24T11:34:24;11.80;99.90
17489;DHT22;8861;52.644;4.734;2022-11-24T11:36:53;11.80;99.90
17489;DHT22;8861;52.644;4.734;2022-11-24T11:39:26;11.60;99.90
17489;DHT22;8861;52.644;4.734;2022-11-24T11:42:01;11.50;99.90
17489;DHT22;8861;52.644;4.734;2022-11-24T11:44:36;11.40;99.90
17489;DHT22;8861;52.644;4.734;2022-11-24T11:47:19;11.40;99.90
17489;DHT22;8861;52.644;4.734;2022-11-24T11:49:48;11.60;99.90
17489;DHT22;8861;52.644;4.734;2022-11-24T11:52:41;11.80;99.90
17489;DHT22;8861;52.644;4.734;2022-11-24T12:01:37;12.20;99.90
17489;DHT22;8861;52.644;4.734;2022-11-24T12:04:14;12.10;99.90
17489;DHT22;8861;52.644;4.734;2022-11-24T12:07:11;12.00;99.90
17489;DHT22;8861;52.644;4.734;2022-11-24T12:09:49;11.90;99.90
17489;DHT22;8861;52.644;4.734;2022-11-24T12:12:32;11.80;99.90
17489;DHT22;8861;52.644;4.734;2022-11-24T12:15:08;11.80;99.90
17489;DHT22;8861;52.644;4.734;2022-11-24T12:17:42;11.70;99.90
17489;DHT22;8861;52.644;4.734;2022-11-24T12:20:22;11.70;99.90
17489;DHT22;8861;52.644;4.734;2022-11-24T12:23:00;11.70;99.90
17489;DHT22;8861;52.644;4.734;2022-11-24T12:25:33;11.70;99.90
17489;DHT22;8861;52.644;4.734;2022-11-24T12:28:13;11.60;99.90
17489;DHT22;8861;52.644;4.734;2022-11-24T12:30:52;11.60;99.90
17489;DHT22;8861;52.644;4.734;2022-11-24T12:33:49;11.50;99.90
17489;DHT22;8861;52.644;4.734;2022-11-24T12:36:29;11.50;99.90
17489;DHT22;8861;52.644;4.734;2022-11-24T12:39:03;11.50;99.90
17489;DHT22;8861;52.644;4.734;2022-11-24T12:41:42;11.50;99.90
17489;DHT22;8861;52.644;4.734;2022-11-24T12:44:27;11.50;99.90
17489;DHT22;8861;52.644;4.734;2022-11-24T12:47:01;11.60;99.90
17489;DHT22;8861;52.644;4.734;2022-11-24T12:49:37;11.60;99.90
17489;DHT22;8861;52.644;4.734;2022-11-24T12:52:18;11.60;99.90
17489;DHT22;8861;52.644;4.734;2022-11-24T12:54:46;11.70;99.90
17489;DHT22;8861;52.644;4.734;2022-11-24T12:57:17;11.70;99.90
17489;DHT22;8861;52.644;4.734;2022-11-24T12:59:53;11.70;99.90
17489;DHT22;8861;52.644;4.734;2022-11-24T13:02:29;11.70;99.90
17489;DHT22;8861;52.644;4.734;2022-11-24T13:05:07;11.70;99.90
17489;DHT22;8861;52.644;4.734;2022-11-24T13:07:42;11.70;99.90
17489;DHT22;8861;52.644;4.734;2022-11-24T13:10:30;11.60;99.90
17489;DHT22;8861;52.644;4.734;2022-11-24T13:12:58;11.60;99.90
17489;DHT22;8861;52.644;4.734;2022-11-24T13:15:27;11.60;99.90
17489;DHT22;8861;52.644;4.734;2022-11-24T13:17:54;11.60;99.90
17489;DHT22;8861;52.644;4.734;2022-11-24T13:20:25;11.70;99.90
17489;DHT22;8861;52.644;4.734;2022-11-24T13:22:58;11.70;99.90
17489;DHT22;8861;52.644;4.734;2022-11-24T13:25:27;11.80;99.90
17489;DHT22;8861;52.644;4.734;2022-11-24T13:27:54;11.80;99.90
17489;DHT22;8861;52.644;4.734;2022-11-24T13:33:32;11.80;99.90
17489;DHT22;8861;52.644;4.734;2022-11-24T13:36:35;11.90;99.90
17489;DHT22;8861;52.644;4.734;2022-11-24T13:39:20;11.90;99.90
17489;DHT22;8861;52.644;4.734;2022-11-24T13:42:08;11.80;99.90
17489;DHT22;8861;52.644;4.734;2022-11-24T13:44:52;11.80;99.90
17489;DHT22;8861;52.644;4.734;2022-11-24T13:47:38;11.70;99.90
17489;DHT22;8861;52.644;4.734;2022-11-24T13:52:52;11.60;99.90
17489;DHT22;8861;52.644;4.734;2022-11-24T13:55:31;11.60;99.90
17489;DHT22;8861;52.644;4.734;2022-11-24T14:01:08;11.50;99.90
17489;DHT22;8861;52.644;4.734;2022-11-24T14:03:41;11.40;99.90
17489;DHT22;8861;52.644;4.734;2022-11-24T14:06:15;11.40;99.90
17489;DHT22;8861;52.644;4.734;2022-11-24T14:08:45;11.50;99.90
17489;DHT22;8861;52.644;4.734;2022-11-24T14:11:15;11.40;99.90
17489;DHT22;8861;52.644;4.734;2022-11-24T14:13:42;11.30;99.90
17489;DHT22;8861;52.644;4.734;2022-11-24T14:16:15;11.30;99.90
17489;DHT22;8861;52.644;4.734;2022-11-24T14:18:43;11.30;99.90
17489;DHT22;8861;52.644;4.734;2022-11-24T14:21:25;11.20;99.90
17489;DHT22;8861;52.644;4.734;2022-11-24T14:23:55;11.20;99.90
17489;DHT22;8861;52.644;4.734;2022-11-24T14:26:27;11.10;99.90
17489;DHT22;8861;52.644;4.734;2022-11-24T14:29:05;11.10;99.90
17489;DHT22;8861;52.644;4.734;2022-11-24T14:31:32;11.00;99.90
17489;DHT22;8861;52.644;4.734;2022-11-24T14:34:12;11.00;99.90
17489;DHT22;8861;52.644;4.734;2022-11-24T14:36:40;10.90;99.90
17489;DHT22;8861;52.644;4.734;2022-11-24T14:39:12;10.80;99.90
17489;DHT22;8861;52.644;4.734;2022-11-24T14:41:41;10.80;99.90
17489;DHT22;8861;52.644;4.734;2022-11-24T14:44:16;10.80;99.90
17489;DHT22;8861;52.644;4.734;2022-11-24T14:46:45;10.70;99.90
17489;DHT22;8861;52.644;4.734;2022-11-24T14:49:20;10.70;99.90
17489;DHT22;8861;52.644;4.734;2022-11-24T14:51:53;10.60;99.90
17489;DHT22;8861;52.644;4.734;2022-11-24T14:54:23;10.60;99.90
17489;DHT22;8861;52.644;4.734;2022-11-24T14:56:59;10.60;99.90
17489;DHT22;8861;52.644;4.734;2022-11-24T14:59:28;10.60;99.90
17489;DHT22;8861;52.644;4.734;2022-11-24T15:01:56;10.60;99.90
17489;DHT22;8861;52.644;4.734;2022-11-24T15:04:25;10.60;99.90
17489;DHT22;8861;52.644;4.734;2022-11-24T15:07:10;10.50;99.90
17489;DHT22;8861;52.644;4.734;2022-11-24T15:09:48;10.50;99.90
17489;DHT22;8861;52.644;4.734;2022-11-24T15:12:22;10.40;99.90
17489;DHT22;8861;52.644;4.734;2022-11-24T15:14:54;10.40;99.90
17489;DHT22;8861;52.644;4.734;2022-11-24T15:17:23;10.40;99.90
17489;DHT22;8861;52.644;4.734;2022-11-24T15:19:54;10.30;99.90
17489;DHT22;8861;52.644;4.734;2022-11-24T15:22:33;10.20;99.90
17489;DHT22;8861;52.644;4.734;2022-11-24T15:25:02;10.20;99.90
17489;DHT22;8861;52.644;4.734;2022-11-24T15:27:29;10.20;99.90
17489;DHT22;8861;52.644;4.734;2022-11-24T15:29:56;10.20;99.90
17489;DHT22;8861;52.644;4.734;2022-11-24T15:32:23;10.20;99.90
17489;DHT22;8861;52.644;4.734;2022-11-24T15:34:50;10.20;99.90
17489;DHT22;8861;52.644;4.734;2022-11-24T15:37:17;10.30;99.90
17489;DHT22;8861;52.644;4.734;2022-11-24T15:39:44;10.20;99.90
17489;DHT22;8861;52.644;4.734;2022-11-24T15:42:13;10.20;99.90
17489;DHT22;8861;52.644;4.734;2022-11-24T15:44:40;10.20;99.90
17489;DHT22;8861;52.644;4.734;2022-11-24T15:47:07;10.20;99.90
17489;DHT22;8861;52.644;4.734;2022-11-24T15:49:34;10.10;99.90
17489;DHT22;8861;52.644;4.734;2022-11-24T15:52:01;10.10;99.90
17489;DHT22;8861;52.644;4.734;2022-11-24T15:54:28;10.10;99.90
17489;DHT22;8861;52.644;4.734;2022-11-24T15:56:55;10.00;99.90
17489;DHT22;8861;52.644;4.734;2022-11-24T15:59:23;10.00;99.90
17489;DHT22;8861;52.644;4.734;2022-11-24T16:01:50;9.90;99.90
17489;DHT22;8861;52.644;4.734;2022-11-24T16:04:17;9.90;99.90
17489;DHT22;8861;52.644;4.734;2022-11-24T16:06:44;9.90;99.90
17489;DHT22;8861;52.644;4.734;2022-11-24T16:09:15;9.90;99.90
17489;DHT22;8861;52.644;4.734;2022-11-24T16:11:42;9.80;99.90
17489;DHT22;8861;52.644;4.734;2022-11-24T16:14:09;9.70;99.90
17489;DHT22;8861;52.644;4.734;2022-11-24T16:16:37;9.70;99.90
17489;DHT22;8861;52.644;4.734;2022-11-24T16:19:07;9.60;99.90
17489;DHT22;8861;52.644;4.734;2022-11-24T16:21:34;9.60;99.90
17489;DHT22;8861;52.644;4.734;2022-11-24T16:24:01;9.60;99.90
17489;DHT22;8861;52.644;4.734;2022-11-24T16:26:28;9.60;99.90
17489;DHT22;8861;52.644;4.734;2022-11-24T16:28:55;9.60;99.90
17489;DHT22;8861;52.644;4.734;2022-11-24T16:31:22;9.60;99.90